createdAt,value
2022-11-05T00:00:33.238Z,100822.13
2022-11-05T00:03:18.631Z,100818.66
2022-11-05T00:06:20.426Z,100837.88
2022-11-05T00:09:05.249Z,100756.59
2022-11-05T00:11:50.342Z,100781.69
2022-11-05T00:14:35.069Z,100737.88
2022-11-05T00:17:01.412Z,100748.19
2022-11-05T00:19:27.812Z,100829.34
2022-11-05T00:22:12.825Z,100777.59
2022-11-05T00:24:57.846Z,100747.41
2022-11-05T00:27:24.184Z,100840.63
2022-11-05T00:29:50.558Z,100746.66
2022-11-05T00:32:16.903Z,100826.91
2022-11-05T00:34:43.283Z,100739.69
2022-11-05T00:37:09.596Z,100760.34
2022-11-05T00:39:35.926Z,100741.50
2022-11-05T00:42:20.989Z,100767.50
2022-11-05T00:45:00.744Z,100786.41
2022-11-05T00:47:45.587Z,100776.06
2022-11-05T00:50:12.357Z,100853.88
2022-11-05T00:52:58.192Z,100846.16
2022-11-05T00:55:33.595Z,100855.72
2022-11-05T00:58:01.826Z,100772.88
2022-11-05T01:00:30.126Z,100759.00
2022-11-05T01:03:11.508Z,100860.03
2022-11-05T01:05:41.258Z,100862.53
2022-11-05T01:08:09.607Z,100817.66
2022-11-05T01:10:51.221Z,100816.97
2022-11-05T01:13:22.309Z,100859.31
2022-11-05T01:15:50.808Z,100824.72
2022-11-05T01:18:19.103Z,100869.66
2022-11-05T01:20:46.268Z,100835.97
2022-11-05T01:23:13.916Z,100775.59
2022-11-05T01:25:41.733Z,100876.50
2022-11-05T01:28:09.517Z,100819.53
2022-11-05T01:30:36.747Z,100858.66
2022-11-05T01:33:03.435Z,100816.50
2022-11-05T01:35:29.938Z,100861.56
2022-11-05T01:37:56.276Z,100813.25
2022-11-05T01:40:24.225Z,100844.50
2022-11-05T01:42:50.605Z,100802.13
2022-11-05T01:45:25.966Z,100879.03
2022-11-05T01:48:04.582Z,100852.19
2022-11-05T01:50:43.235Z,100897.97
2022-11-05T01:53:18.523Z,100904.09
2022-11-05T01:55:54.239Z,100869.72
2022-11-05T01:58:24.460Z,100851.63
2022-11-05T02:00:51.155Z,100835.16
2022-11-05T02:03:18.743Z,100874.06
2022-11-05T02:05:46.001Z,100886.09
2022-11-05T02:08:21.506Z,100928.50
2022-11-05T02:10:48.580Z,100927.56
2022-11-05T02:13:15.103Z,100882.56
2022-11-05T02:16:09.688Z,100918.72
2022-11-05T02:19:06.130Z,100848.78
2022-11-05T02:21:56.499Z,100876.44
2022-11-05T02:24:54.188Z,100901.31
2022-11-05T02:27:57.449Z,100925.59
2022-11-05T02:30:45.571Z,100932.66
2022-11-05T02:33:33.777Z,100920.44
2022-11-05T02:36:31.236Z,100819.47
2022-11-05T02:39:12.881Z,100929.97
2022-11-05T02:41:59.279Z,100913.50
2022-11-05T02:45:00.935Z,100922.94
2022-11-05T02:47:44.088Z,100832.31
2022-11-05T02:50:20.221Z,100923.91
2022-11-05T02:52:57.906Z,100866.84
2022-11-05T02:55:34.472Z,100912.59
2022-11-05T02:58:03.148Z,100806.34
2022-11-05T03:00:38.479Z,100910.06
2022-11-05T03:03:07.755Z,100910.03
2022-11-05T03:05:44.262Z,100897.97
2022-11-05T03:08:25.006Z,100924.06
2022-11-05T03:11:21.769Z,100898.13
2022-11-05T03:14:12.627Z,100910.22
2022-11-05T03:16:42.046Z,100894.72
2022-11-05T03:19:28.245Z,100899.94
2022-11-05T03:22:14.222Z,100891.25
2022-11-05T03:24:46.505Z,100863.66
2022-11-05T03:27:19.608Z,100899.06
2022-11-05T03:29:53.439Z,100918.97
2022-11-05T03:32:22.365Z,100898.16
2022-11-05T03:34:56.714Z,100906.97
2022-11-05T03:37:26.965Z,100872.47
2022-11-05T03:39:58.547Z,100928.75
2022-11-05T03:42:29.817Z,100921.91
2022-11-05T03:44:59.536Z,100906.41
2022-11-05T03:47:32.524Z,100911.56
2022-11-05T03:50:17.682Z,100933.19
2022-11-05T03:52:52.499Z,100915.06
2022-11-05T03:55:24.522Z,100892.63
2022-11-05T03:57:55.507Z,100935.06
2022-11-05T04:00:23.473Z,100911.78
2022-11-05T04:02:50.213Z,100912.72
2022-11-05T04:05:16.814Z,100923.00
2022-11-05T04:08:03.054Z,100941.97
2022-11-05T04:10:47.752Z,100928.13
2022-11-05T04:13:25.861Z,100919.50
2022-11-05T04:16:11.832Z,100943.75
2022-11-05T04:18:38.478Z,100958.44
2022-11-05T04:21:24.489Z,100954.06
2022-11-05T04:24:09.997Z,100961.91
2022-11-05T04:26:39.213Z,100937.53
2022-11-05T04:29:24.690Z,100908.06
2022-11-05T04:31:51.183Z,100904.69
2022-11-05T04:34:18.865Z,100928.13
2022-11-05T04:36:46.208Z,100910.06
2022-11-05T04:39:12.628Z,100968.88
2022-11-05T04:41:38.966Z,100968.00
2022-11-05T04:44:05.333Z,100916.13
2022-11-05T04:46:31.659Z,100908.44
2022-11-05T04:48:57.948Z,100929.22
2022-11-05T04:51:24.265Z,100933.56
2022-11-05T04:53:50.596Z,100959.56
2022-11-05T04:56:23.150Z,100950.81
2022-11-05T04:58:49.682Z,100933.59
2022-11-05T05:01:18.471Z,100958.69
2022-11-05T05:03:48.276Z,100919.72
2022-11-05T05:06:14.704Z,100981.13
2022-11-05T05:08:41.187Z,100957.81
2022-11-05T05:11:10.731Z,100985.44
2022-11-05T05:13:37.917Z,100978.50
2022-11-05T05:16:09.516Z,100988.00
2022-11-05T05:18:35.962Z,100987.97
2022-11-05T05:21:21.290Z,100985.41
2022-11-05T05:23:48.463Z,100964.72
2022-11-05T05:26:17.948Z,100986.44
2022-11-05T05:28:44.329Z,100847.19
2022-11-05T05:31:10.784Z,100970.88
2022-11-05T05:33:37.138Z,100963.16
2022-11-05T05:36:08.502Z,100951.00
2022-11-05T05:38:37.356Z,100853.22
2022-11-05T05:41:03.689Z,100956.16
2022-11-05T05:43:33.954Z,100991.69
2022-11-05T05:46:04.893Z,100996.00
2022-11-05T05:48:31.485Z,100914.69
2022-11-05T05:51:02.210Z,100971.84
2022-11-05T05:53:29.428Z,100940.59
2022-11-05T05:55:56.290Z,100982.22
2022-11-05T05:58:23.849Z,100977.06
2022-11-05T06:00:50.173Z,100965.81
2022-11-05T06:03:16.497Z,100972.75
2022-11-05T06:05:42.813Z,101001.34
2022-11-05T06:08:09.130Z,100940.72
2022-11-05T06:10:35.755Z,100966.72
2022-11-05T06:13:02.555Z,100967.63
2022-11-05T06:15:34.600Z,101004.00
2022-11-05T06:18:02.102Z,100985.78
2022-11-05T06:20:28.422Z,101006.59
2022-11-05T06:22:56.199Z,101023.81
2022-11-05T06:25:22.562Z,100973.66
2022-11-05T06:27:48.855Z,101006.59
2022-11-05T06:30:15.497Z,101010.09
2022-11-05T06:32:41.809Z,101009.22
2022-11-05T06:35:09.243Z,101012.75
2022-11-05T06:37:35.832Z,100992.88
2022-11-05T06:40:02.205Z,101025.72
2022-11-05T06:42:28.511Z,100991.00
2022-11-05T06:44:55.180Z,101048.22
2022-11-05T06:47:22.106Z,100972.91
2022-11-05T06:49:48.860Z,101030.91
2022-11-05T06:52:15.790Z,101013.66
2022-11-05T06:54:43.721Z,101060.41
2022-11-05T06:57:11.777Z,101022.22
2022-11-05T06:59:39.235Z,101055.06
2022-11-05T07:02:06.727Z,101043.03
2022-11-05T07:04:33.654Z,101006.59
2022-11-05T07:07:00.931Z,101026.63
2022-11-05T07:09:28.477Z,101046.56
2022-11-05T07:11:55.664Z,101073.44
2022-11-05T07:14:22.003Z,101019.69
2022-11-05T07:16:50.121Z,101039.53
2022-11-05T07:19:16.445Z,101011.81
2022-11-05T07:21:42.914Z,101040.41
2022-11-05T07:24:09.224Z,101047.38
2022-11-05T07:26:35.570Z,101062.91
2022-11-05T07:29:02.034Z,101055.03
2022-11-05T07:31:28.338Z,101075.88
2022-11-05T07:33:54.691Z,101081.81
2022-11-05T07:36:21.019Z,101066.13
2022-11-05T07:38:47.359Z,101039.28
2022-11-05T07:41:13.724Z,101094.59
2022-11-05T07:43:40.042Z,101084.19
2022-11-05T07:46:11.154Z,100994.16
2022-11-05T07:48:39.889Z,101048.72
2022-11-05T07:51:06.280Z,101051.28
2022-11-05T07:53:32.602Z,101096.38
2022-11-05T07:55:58.924Z,101066.88
2022-11-05T07:58:25.271Z,101072.09
2022-11-05T08:00:51.720Z,101075.44
2022-11-05T08:03:18.739Z,101070.41
2022-11-05T08:05:47.062Z,101102.19
2022-11-05T08:08:15.443Z,101104.78
2022-11-05T08:10:42.268Z,101110.06
2022-11-05T08:13:09.501Z,101110.84
2022-11-05T08:15:36.583Z,101085.88
2022-11-05T08:18:12.253Z,101113.44
2022-11-05T08:20:40.379Z,101110.75
2022-11-05T08:23:06.794Z,101084.56
2022-11-05T08:25:33.622Z,101107.91
2022-11-05T08:28:02.434Z,101014.38
2022-11-05T08:30:29.330Z,101026.50
2022-11-05T08:33:00.456Z,101091.28
2022-11-05T08:35:27.370Z,101048.09
2022-11-05T08:38:02.619Z,101029.06
2022-11-05T08:40:31.469Z,101111.22
2022-11-05T08:42:59.436Z,101128.47
2022-11-05T08:45:27.024Z,101111.06
2022-11-05T08:48:05.774Z,101122.22
2022-11-05T08:50:32.400Z,101098.97
2022-11-05T08:52:59.387Z,101116.06
2022-11-05T08:55:26.577Z,101076.44
2022-11-05T08:57:57.461Z,101122.84
2022-11-05T09:00:24.448Z,101105.50
2022-11-05T09:02:50.812Z,101093.31
2022-11-05T09:05:17.192Z,101104.63
2022-11-05T09:07:43.597Z,101075.84
2022-11-05T09:10:10.644Z,101125.94
2022-11-05T09:12:36.955Z,101089.66
2022-11-05T09:15:03.714Z,101124.19
2022-11-05T09:17:30.052Z,101107.75
2022-11-05T09:19:56.359Z,101098.38
2022-11-05T09:22:22.702Z,101114.53
2022-11-05T09:24:49.005Z,101080.75
2022-11-05T09:27:15.350Z,101142.00
2022-11-05T09:29:42.430Z,101093.50
2022-11-05T09:32:09.321Z,101144.34
2022-11-05T09:34:36.301Z,101134.72
2022-11-05T09:37:02.958Z,101148.47
2022-11-05T09:39:30.089Z,101136.00
2022-11-05T09:42:04.784Z,101144.22
2022-11-05T09:44:49.140Z,101131.06
2022-11-05T09:47:24.782Z,101114.53
2022-11-05T09:49:56.511Z,101110.09
2022-11-05T09:52:27.880Z,101138.28
2022-11-05T09:54:55.561Z,101145.34
2022-11-05T09:57:45.007Z,101082.81
2022-11-05T10:00:16.449Z,101066.94
2022-11-05T10:02:56.285Z,101124.69
2022-11-05T10:05:25.138Z,101150.97
2022-11-05T10:07:57.326Z,101118.63
2022-11-05T10:10:37.864Z,101153.22
2022-11-05T10:13:33.950Z,101138.81
2022-11-05T10:16:06.565Z,101119.00
2022-11-05T10:18:36.809Z,101129.44
2022-11-05T10:21:03.839Z,101122.84
2022-11-05T10:23:30.327Z,101137.03
2022-11-05T10:26:02.853Z,101116.03
2022-11-05T10:28:31.807Z,101121.19
2022-11-05T10:31:04.690Z,101124.00
2022-11-05T10:33:42.389Z,101147.28
2022-11-05T10:36:24.921Z,101148.19
2022-11-05T10:38:52.961Z,101131.97
2022-11-05T10:41:42.622Z,101128.88
2022-11-05T10:44:48.457Z,101153.34
2022-11-05T10:47:36.446Z,101152.22
2022-11-05T10:50:09.901Z,101149.53
2022-11-05T10:52:50.731Z,101131.72
2022-11-05T10:55:23.983Z,101154.25
2022-11-05T10:57:50.664Z,101131.28
2022-11-05T11:00:16.966Z,101150.47
2022-11-05T11:02:49.125Z,101127.97
2022-11-05T11:05:32.237Z,101140.94
2022-11-05T11:08:18.096Z,101134.38
2022-11-05T11:11:02.032Z,101159.97
2022-11-05T11:13:48.484Z,101142.88
2022-11-05T11:16:19.971Z,101113.81
2022-11-05T11:18:46.359Z,101132.44
2022-11-05T11:21:23.184Z,101159.75
2022-11-05T11:24:18.744Z,101160.94
2022-11-05T11:26:45.178Z,101164.75
2022-11-05T11:29:24.035Z,101151.09
2022-11-05T11:31:54.793Z,101166.84
2022-11-05T11:34:33.658Z,101162.19
2022-11-05T11:37:19.351Z,101129.44
2022-11-05T11:39:51.782Z,101157.56
2022-11-05T11:42:29.300Z,101167.69
2022-11-05T11:44:59.097Z,101135.47
2022-11-05T11:47:28.050Z,101157.63
2022-11-05T11:49:57.122Z,101134.81
2022-11-05T11:52:31.202Z,101137.69
2022-11-05T11:55:12.783Z,101166.03
2022-11-05T11:57:51.969Z,101162.38
2022-11-05T12:00:20.540Z,101136.94
2022-11-05T12:03:16.493Z,101162.22
2022-11-05T12:06:10.781Z,101154.53
2022-11-05T12:09:06.428Z,101153.81
2022-11-05T12:11:41.947Z,101148.69
2022-11-05T12:14:32.393Z,101123.53
2022-11-05T12:17:09.729Z,101148.22
2022-11-05T12:19:52.381Z,101130.72
2022-11-05T12:22:51.925Z,101141.44
2022-11-05T12:25:49.194Z,101137.13
2022-11-05T12:28:18.536Z,101149.81
2022-11-05T12:31:00.479Z,101104.59
2022-11-05T12:33:39.239Z,101130.94
2022-11-05T12:36:15.471Z,101130.13
2022-11-05T12:38:58.834Z,101133.97
2022-11-05T12:41:55.098Z,101128.75
2022-11-05T12:44:38.808Z,101124.25
2022-11-05T12:47:35.112Z,101121.31
2022-11-05T12:50:20.233Z,101116.78
2022-11-05T12:53:05.176Z,101108.31
2022-11-05T12:55:39.477Z,101106.34
2022-11-05T12:58:12.901Z,101103.19
2022-11-05T13:00:44.388Z,101104.19
2022-11-05T13:03:36.050Z,101112.53
2022-11-05T13:06:09.946Z,101123.59
2022-11-05T13:08:47.858Z,101093.47
2022-11-05T13:11:23.619Z,101078.94
2022-11-05T13:14:09.888Z,101085.44
2022-11-05T13:16:40.260Z,101074.91
2022-11-05T13:19:28.119Z,101058.50
2022-11-05T13:22:09.556Z,101052.88
2022-11-05T13:24:49.675Z,101023.00
2022-11-05T13:27:19.056Z,101079.63
2022-11-05T13:29:58.023Z,101064.91
2022-11-05T13:32:24.264Z,101079.78
2022-11-05T13:34:59.327Z,101071.44
2022-11-05T13:37:52.773Z,101063.03
2022-11-05T13:40:25.484Z,101050.25
2022-11-05T13:43:27.940Z,101060.66
2022-11-05T13:46:12.160Z,101070.50
2022-11-05T13:48:54.648Z,101064.22
2022-11-05T13:51:39.201Z,101051.19
2022-11-05T13:54:34.252Z,101064.91
2022-11-05T13:57:32.608Z,101006.06
2022-11-05T14:00:16.018Z,101048.34
2022-11-05T14:03:05.024Z,101034.09
2022-11-05T14:05:41.326Z,101036.13
2022-11-05T14:08:12.297Z,101004.25
2022-11-05T14:10:41.604Z,101028.25
2022-11-05T14:13:34.944Z,101038.88
2022-11-05T14:16:09.685Z,101043.16
2022-11-05T14:18:35.928Z,101037.13
2022-11-05T14:21:04.296Z,101019.03
2022-11-05T14:23:30.724Z,101029.31
2022-11-05T14:26:13.031Z,101008.81
2022-11-05T14:28:45.856Z,100999.09
2022-11-05T14:31:18.122Z,101029.84
2022-11-05T14:33:54.984Z,101016.00
2022-11-05T14:36:21.228Z,101029.69
2022-11-05T14:38:53.352Z,101036.50
2022-11-05T14:41:20.893Z,100999.25
2022-11-05T14:44:01.373Z,101035.75
2022-11-05T14:46:42.910Z,101032.28
2022-11-05T14:49:17.439Z,101029.28
2022-11-05T14:51:53.046Z,101020.22
2022-11-05T14:54:41.172Z,101041.94
2022-11-05T14:57:12.533Z,100996.06
2022-11-05T14:59:52.766Z,101041.09
2022-11-05T15:02:26.518Z,101022.47
2022-11-05T15:05:31.263Z,101050.50
2022-11-05T15:07:58.412Z,101052.88
2022-11-05T15:10:35.002Z,100984.81
2022-11-05T15:13:06.110Z,101044.81
2022-11-05T15:15:43.539Z,100990.41
2022-11-05T15:18:29.552Z,101018.75
2022-11-05T15:21:00.706Z,101041.34
2022-11-05T15:23:36.362Z,101017.41
2022-11-05T15:26:27.491Z,101035.78
2022-11-05T15:28:55.327Z,101030.22
2022-11-05T15:31:30.777Z,101042.28
2022-11-05T15:34:15.243Z,101023.44
2022-11-05T15:36:48.651Z,101013.88
2022-11-05T15:39:29.959Z,101050.31
2022-11-05T15:41:59.199Z,101046.28
2022-11-05T15:44:38.752Z,101049.81
2022-11-05T15:47:07.274Z,101031.75
2022-11-05T15:49:33.984Z,101018.91
2022-11-05T15:52:00.361Z,101045.72
2022-11-05T15:54:30.808Z,101037.75
2022-11-05T15:56:59.673Z,101034.56
2022-11-05T15:59:29.119Z,101015.63
2022-11-05T16:02:18.288Z,101043.16
2022-11-05T16:04:48.101Z,100941.13
2022-11-05T16:07:15.592Z,101052.31
2022-11-05T16:09:49.965Z,101042.97
2022-11-05T16:12:19.292Z,101036.50
2022-11-05T16:15:17.227Z,101041.81
2022-11-05T16:17:53.445Z,101019.56
2022-11-05T16:20:22.974Z,101055.13
2022-11-05T16:22:52.842Z,101047.25
2022-11-05T16:25:26.973Z,101056.22
2022-11-05T16:27:53.369Z,101052.44
2022-11-05T16:30:20.064Z,101058.38
2022-11-05T16:32:47.204Z,101033.50
2022-11-05T16:35:24.131Z,101030.19
2022-11-05T16:37:52.645Z,101040.91
2022-11-05T16:40:25.244Z,101061.63
2022-11-05T16:42:53.714Z,101065.06
2022-11-05T16:45:23.804Z,101030.38
2022-11-05T16:47:50.998Z,101059.56
2022-11-05T16:50:18.766Z,101060.19
2022-11-05T16:52:46.553Z,101039.47
2022-11-05T16:55:14.465Z,101043.78
2022-11-05T16:57:42.906Z,101035.44
2022-11-05T17:00:13.400Z,101060.19
2022-11-05T17:02:39.924Z,101042.16
2022-11-05T17:05:16.341Z,101051.47
2022-11-05T17:07:42.840Z,101010.91
2022-11-05T17:10:09.234Z,101015.75
2022-11-05T17:12:36.261Z,101026.94
2022-11-05T17:15:02.592Z,101004.50
2022-11-05T17:17:29.092Z,101021.81
2022-11-05T17:19:55.489Z,100949.38
2022-11-05T17:22:21.810Z,101025.22
2022-11-05T17:24:48.130Z,100996.13
2022-11-05T17:27:14.703Z,101008.13
2022-11-05T17:29:41.005Z,101047.03
2022-11-05T17:32:07.630Z,101029.03
2022-11-05T17:34:33.924Z,101003.09
2022-11-05T17:37:00.225Z,101048.03
2022-11-05T17:39:31.431Z,101033.97
2022-11-05T17:41:58.265Z,101024.94
2022-11-05T17:44:24.549Z,101042.00
2022-11-05T17:46:51.137Z,101035.88
2022-11-05T17:49:17.469Z,101056.03
2022-11-05T17:51:43.806Z,101028.38
2022-11-05T17:54:10.221Z,101066.84
2022-11-05T17:56:41.712Z,101033.53
2022-11-05T17:59:10.576Z,101058.94
2022-11-05T18:01:41.308Z,101038.84
2022-11-05T18:04:09.149Z,101030.97
2022-11-05T18:06:37.330Z,101069.13
2022-11-05T18:09:05.487Z,101066.81
2022-11-05T18:11:32.408Z,101048.97
2022-11-05T18:13:58.895Z,101070.34
2022-11-05T18:16:25.297Z,101041.84
2022-11-05T18:18:51.594Z,101028.03
2022-11-05T18:21:17.941Z,101045.38
2022-11-05T18:23:44.308Z,101056.25
2022-11-05T18:26:12.252Z,101037.94
2022-11-05T18:28:39.252Z,101071.28
2022-11-05T18:31:16.841Z,101052.09
2022-11-05T18:33:44.465Z,101057.88
2022-11-05T18:36:19.233Z,101070.59
2022-11-05T18:38:46.004Z,101046.34
2022-11-05T18:41:12.332Z,101006.72
2022-11-05T18:43:38.631Z,101046.09
2022-11-05T18:46:06.082Z,101041.94
2022-11-05T18:48:32.403Z,101070.28
2022-11-05T18:51:01.839Z,101039.22
2022-11-05T18:53:28.604Z,101050.50
2022-11-05T18:55:54.956Z,101065.81
2022-11-05T18:58:21.259Z,101061.69
2022-11-05T19:00:47.562Z,101047.03
2022-11-05T19:03:13.888Z,101061.00
2022-11-05T19:05:40.187Z,101041.66
2022-11-05T19:08:06.587Z,101066.75
2022-11-05T19:10:32.902Z,101022.94
2022-11-05T19:12:59.219Z,101034.97
2022-11-05T19:15:25.536Z,101042.13
2022-11-05T19:17:51.849Z,101057.88
2022-11-05T19:20:18.165Z,101045.38
2022-11-05T19:22:44.477Z,101060.72
2022-11-05T19:25:10.852Z,101045.53
2022-11-05T19:27:38.498Z,101049.72
2022-11-05T19:30:06.103Z,101027.47
2022-11-05T19:32:32.563Z,101030.38
2022-11-05T19:34:58.856Z,101029.00
2022-11-05T19:37:25.247Z,101052.28
2022-11-05T19:39:52.006Z,101028.34
2022-11-05T19:42:18.311Z,101053.94
2022-11-05T19:44:44.621Z,101048.56
2022-11-05T19:47:11.095Z,101034.38
2022-11-05T19:49:37.407Z,101032.72
2022-11-05T19:52:03.779Z,101046.38
2022-11-05T19:54:30.134Z,101037.00
2022-11-05T19:56:56.459Z,101038.63
2022-11-05T19:59:22.756Z,101036.88
2022-11-05T20:01:53.331Z,101028.38
2022-11-05T20:04:23.396Z,101050.78
2022-11-05T20:06:49.712Z,101047.19
2022-11-05T20:09:23.486Z,101016.97
2022-11-05T20:11:53.654Z,101029.13
2022-11-05T20:14:20.019Z,101035.91
2022-11-05T20:16:46.956Z,101057.75
2022-11-05T20:19:16.599Z,101052.38
2022-11-05T20:21:43.243Z,101052.28
2022-11-05T20:24:12.342Z,101037.00
2022-11-05T20:26:38.791Z,101027.56
2022-11-05T20:29:05.420Z,101012.97
2022-11-05T20:31:32.049Z,101033.69
2022-11-05T20:33:58.429Z,101048.44
2022-11-05T20:36:25.964Z,101050.00
2022-11-05T20:38:55.207Z,101056.25
2022-11-05T20:41:21.627Z,101060.50
2022-11-05T20:43:48.052Z,101056.31
2022-11-05T20:46:17.016Z,101065.88
2022-11-05T20:48:44.113Z,101009.94
2022-11-05T20:51:17.486Z,101035.03
2022-11-05T20:53:46.016Z,101060.69
2022-11-05T20:56:23.074Z,101067.84
2022-11-05T20:58:50.308Z,101070.63
2022-11-05T21:01:17.574Z,101077.56
2022-11-05T21:03:45.069Z,101061.22
2022-11-05T21:06:11.801Z,101077.03
2022-11-05T21:08:38.263Z,101051.69
2022-11-05T21:11:05.239Z,100993.19
2022-11-05T21:13:31.600Z,101048.38
2022-11-05T21:15:59.916Z,101026.72
2022-11-05T21:18:29.333Z,101037.69
2022-11-05T21:20:56.131Z,100999.69
2022-11-05T21:23:23.103Z,100918.38
2022-11-05T21:25:49.590Z,100978.97
2022-11-05T21:28:16.618Z,101016.22
2022-11-05T21:30:45.730Z,101026.28
2022-11-05T21:33:13.939Z,100997.97
2022-11-05T21:35:43.707Z,101005.00
2022-11-05T21:38:11.810Z,101042.44
2022-11-05T21:40:38.806Z,101041.19
2022-11-05T21:43:05.645Z,101041.28
2022-11-05T21:45:32.443Z,101016.28
2022-11-05T21:47:58.981Z,100991.19
2022-11-05T21:50:44.076Z,101038.03
2022-11-05T21:53:35.615Z,101032.84
2022-11-05T21:56:37.549Z,101006.06
2022-11-05T21:59:23.754Z,100995.00
2022-11-05T22:01:50.644Z,100996.50
2022-11-05T22:04:17.138Z,100991.25
2022-11-05T22:06:43.521Z,100929.00
2022-11-05T22:09:09.882Z,100991.00
2022-11-05T22:11:37.395Z,101001.94
2022-11-05T22:14:04.260Z,100984.03
2022-11-05T22:16:30.572Z,100962.94
2022-11-05T22:18:57.914Z,100976.63
2022-11-05T22:21:24.308Z,100952.31
2022-11-05T22:23:52.080Z,100962.66
2022-11-05T22:26:18.680Z,100979.06
2022-11-05T22:28:45.052Z,100929.66
2022-11-05T22:31:16.241Z,100938.56
2022-11-05T22:33:43.365Z,100972.94
2022-11-05T22:36:10.087Z,100954.88
2022-11-05T22:38:36.474Z,100940.22
2022-11-05T22:41:11.130Z,100979.19
2022-11-05T22:43:38.208Z,100926.28
2022-11-05T22:46:06.623Z,100949.47
2022-11-05T22:48:35.532Z,100945.34
2022-11-05T22:51:10.640Z,100935.88
2022-11-05T22:53:37.750Z,100910.75
2022-11-05T22:56:15.791Z,100938.28
2022-11-05T22:58:42.912Z,100958.91
2022-11-05T23:01:14.019Z,100977.13
2022-11-05T23:03:42.023Z,100941.81
2022-11-05T23:06:38.716Z,100941.50
2022-11-05T23:09:32.894Z,100957.03
2022-11-05T23:12:00.653Z,100938.38
2022-11-05T23:14:27.068Z,100945.13
2022-11-05T23:17:12.171Z,100924.56
2022-11-05T23:19:56.760Z,100933.25
2022-11-05T23:22:43.509Z,100955.81
2022-11-05T23:25:17.135Z,100921.38
2022-11-05T23:27:45.161Z,100957.63
2022-11-05T23:30:14.933Z,100953.34
2022-11-05T23:32:41.543Z,100952.63
2022-11-05T23:35:08.620Z,100950.78
2022-11-05T23:37:53.463Z,100917.25
2022-11-05T23:40:25.951Z,100923.50
2022-11-05T23:43:11.337Z,100947.75
2022-11-05T23:45:55.039Z,100937.09
2022-11-05T23:48:27.594Z,100928.50
2022-11-05T23:51:08.864Z,100935.66
2022-11-05T23:53:37.354Z,100929.66
2022-11-05T23:56:12.623Z,100947.94
2022-11-05T23:58:40.172Z,100919.75
